Time;durP1;ratioP1;P1;durP2;ratioP2;P2;SDS_P1;SDS_P2;PMS_P1;PMS_P2;Temp;Humidity;BMP_temperature;BMP_pressure;BME280_temperature;BME280_humidity;BME280_pressure;Samples;Min_cycle;Max_cycle;Signal;HPM_P1;HPM_P2
2023/11/03 00:01:56;;;;;;;17.42;2.22;;;;;;;;;;5010762;28;20034;-92
2023/11/03 00:04:22;;;;;;;18.45;2.58;;;;;;;;;;5010259;28;20026;-92
2023/11/03 00:06:47;;;;;;;17.98;2.75;;;;;;;;;;5011744;28;20120;-93
2023/11/03 00:09:15;;;;;;;12.43;2.17;;;;;;;;;;5010199;28;20037;-92
2023/11/03 00:11:41;;;;;;;10.32;1.58;;;;;;;;;;5010316;28;20048;-94
2023/11/03 00:14:07;;;;;;;18.48;2.25;;;;;;;;;;5010370;28;20021;-94
2023/11/03 00:16:32;;;;;;;18.70;2.35;;;;;;;;;;5010341;28;20025;-92
2023/11/03 00:18:59;;;;;;;19.50;1.92;;;;;;;;;;5010391;28;20022;-92
2023/11/03 00:21:26;;;;;;;20.38;2.70;;;;;;;;;;5010448;28;20060;-91
2023/11/03 00:23:51;;;;;;;21.33;2.70;;;;;;;;;;5011634;28;20468;-92
2023/11/03 00:26:17;;;;;;;10.88;1.70;;;;;;;;;;5012126;28;20084;-91
2023/11/03 00:28:42;;;;;;;11.20;1.98;;;;;;;;;;5011453;28;20056;-91
2023/11/03 00:31:07;;;;;;;25.77;2.83;;;;;;;;;;5010389;28;20052;-91
2023/11/03 00:33:32;;;;;;;14.57;2.10;;;;;;;;;;5013913;28;20022;-92
2023/11/03 00:35:58;;;;;;;17.13;2.72;;;;;;;;;;5015406;28;20049;-91
2023/11/03 00:38:24;;;;;;;19.85;2.60;;;;;;;;;;5015205;28;20030;-92
2023/11/03 00:40:49;;;;;;;22.13;2.70;;;;;;;;;;5014085;28;20026;-92
2023/11/03 00:43:14;;;;;;;15.95;2.40;;;;;;;;;;5014259;28;20022;-92
2023/11/03 00:45:40;;;;;;;20.47;2.37;;;;;;;;;;5014187;28;20028;-92
2023/11/03 00:48:06;;;;;;;19.83;2.25;;;;;;;;;;5014038;28;20637;-92
2023/11/03 00:50:31;;;;;;;18.42;2.17;;;;;;;;;;5013871;28;20021;-92
2023/11/03 00:52:56;;;;;;;14.77;3.47;;;;;;;;;;5013700;28;20535;-92
2023/11/03 00:55:21;;;;;;;10.50;2.08;;;;;;;;;;5013628;28;20765;-91
2023/11/03 00:57:47;;;;;;;17.08;2.10;;;;;;;;;;5015016;28;20037;-92
2023/11/03 01:00:13;;;;;;;18.40;4.60;;;;;;;;;;5015135;28;20022;-92
2023/11/03 01:02:41;;;;;;;14.45;2.08;;;;;;;;;;5013670;28;20025;-92
2023/11/03 01:05:08;;;;;;;20.42;2.40;;;;;;;;;;5013607;28;20507;-92
2023/11/03 01:07:34;;;;;;;12.13;2.10;;;;;;;;;;5013720;28;20204;-92
2023/11/03 01:10:01;;;;;;;19.65;2.83;;;;;;;;;;5014792;28;20388;-93
2023/11/03 01:12:26;;;;;;;12.57;1.77;;;;;;;;;;5014781;28;20486;-92
2023/11/03 01:14:52;;;;;;;8.43;1.75;;;;;;;;;;5014607;28;20050;-93
2023/11/03 01:17:17;;;;;;;12.68;1.85;;;;;;;;;;5014596;28;20033;-91
2023/11/03 01:19:42;;;;;;;12.47;2.73;;;;;;;;;;5014934;28;20069;-91
2023/11/03 01:22:08;;;;;;;20.75;3.60;;;;;;;;;;5014658;28;20263;-93
2023/11/03 01:24:33;;;;;;;14.60;2.17;;;;;;;;;;5013133;28;20026;-92
2023/11/03 01:26:59;;;;;;;24.38;2.45;;;;;;;;;;5013227;28;20028;-93
2023/11/03 01:29:25;;;;;;;8.38;1.65;;;;;;;;;;5012992;28;20048;-92
2023/11/03 01:31:50;;;;;;;14.05;3.10;;;;;;;;;;5014272;28;20084;-92
2023/11/03 01:34:15;;;;;;;12.50;2.50;;;;;;;;;;5014223;28;20464;-92
2023/11/03 01:36:41;;;;;;;14.45;2.00;;;;;;;;;;5014397;28;20112;-92
2023/11/03 01:39:08;;;;;;;19.65;2.42;;;;;;;;;;5014267;28;20022;-92
2023/11/03 01:41:33;;;;;;;11.20;2.13;;;;;;;;;;5012913;28;20057;-92
2023/11/03 01:44:03;;;;;;;18.48;1.92;;;;;;;;;;5013922;28;20488;-92
2023/11/03 01:46:28;;;;;;;16.00;2.25;;;;;;;;;;5013290;28;20025;-92
2023/11/03 01:48:55;;;;;;;18.08;2.50;;;;;;;;;;5013792;28;20404;-92
2023/11/03 01:51:20;;;;;;;30.73;4.05;;;;;;;;;;5014181;28;20022;-91
2023/11/03 01:53:47;;;;;;;19.45;2.67;;;;;;;;;;5013895;28;20033;-91
2023/11/03 01:56:12;;;;;;;12.48;1.90;;;;;;;;;;5014111;28;20026;-91
2023/11/03 01:58:37;;;;;;;14.90;2.00;;;;;;;;;;5013856;28;20072;-92
2023/11/03 02:01:02;;;;;;;21.60;2.17;;;;;;;;;;5013894;28;20026;-92
2023/11/03 02:03:28;;;;;;;13.95;2.60;;;;;;;;;;5013534;28;20464;-92
2023/11/03 02:05:53;;;;;;;15.40;2.58;;;;;;;;;;5013900;28;20014;-92
2023/11/03 02:08:18;;;;;;;13.20;2.00;;;;;;;;;;5013664;28;20121;-92
2023/11/03 02:10:44;;;;;;;14.15;2.08;;;;;;;;;;5013669;28;20362;-92
2023/11/03 02:13:12;;;;;;;19.38;1.73;;;;;;;;;;5013746;28;20026;-92
2023/11/03 02:15:41;;;;;;;13.68;2.67;;;;;;;;;;5013642;28;20283;-92
2023/11/03 02:18:08;;;;;;;7.47;2.50;;;;;;;;;;5012208;28;20034;-93
2023/11/03 02:20:33;;;;;;;16.58;3.13;;;;;;;;;;5012466;28;20026;-93
2023/11/03 02:22:59;;;;;;;26.10;2.53;;;;;;;;;;5013512;28;20018;-92
2023/11/03 02:25:24;;;;;;;12.02;2.63;;;;;;;;;;5013511;28;20488;-92
2023/11/03 02:27:50;;;;;;;14.60;1.85;;;;;;;;;;5011953;28;20022;-92
2023/11/03 02:30:15;;;;;;;16.05;2.30;;;;;;;;;;5013343;28;20113;-92
2023/11/03 02:32:40;;;;;;;11.25;1.58;;;;;;;;;;5013327;28;20014;-91
2023/11/03 02:35:06;;;;;;;8.27;1.48;;;;;;;;;;5013475;28;20026;-92
2023/11/03 02:37:31;;;;;;;17.80;1.90;;;;;;;;;;5013034;28;20037;-92
2023/11/03 02:39:56;;;;;;;15.87;1.60;;;;;;;;;;5011956;28;20018;-91
2023/11/03 02:42:21;;;;;;;6.27;1.10;;;;;;;;;;5012038;28;20259;-92
2023/11/03 02:44:47;;;;;;;14.50;3.20;;;;;;;;;;5010445;28;20252;-92
2023/11/03 02:47:12;;;;;;;11.85;2.33;;;;;;;;;;5027770;28;20056;-91
2023/11/03 02:49:37;;;;;;;27.20;1.80;;;;;;;;;;5032636;28;20017;-91
2023/11/03 02:52:03;;;;;;;13.57;1.97;;;;;;;;;;5031447;28;20029;-91
2023/11/03 02:54:28;;;;;;;9.43;2.13;;;;;;;;;;5032060;28;20263;-92
2023/11/03 02:56:53;;;;;;;15.50;2.20;;;;;;;;;;5032407;28;20036;-92
2023/11/03 02:59:20;;;;;;;19.73;1.75;;;;;;;;;;5032399;28;20021;-92
2023/11/03 03:01:45;;;;;;;12.75;1.75;;;;;;;;;;5032418;28;20051;-92
2023/11/03 03:04:10;;;;;;;11.85;2.45;;;;;;;;;;5032181;28;20083;-92
2023/11/03 03:06:35;;;;;;;14.93;1.83;;;;;;;;;;5032073;28;20431;-92
2023/11/03 03:09:01;;;;;;;15.35;1.98;;;;;;;;;;5032075;28;20399;-92
2023/11/03 03:11:26;;;;;;;11.35;2.03;;;;;;;;;;5030869;28;20028;-92
2023/11/03 03:13:51;;;;;;;17.02;2.03;;;;;;;;;;5030677;28;20033;-91
2023/11/03 03:16:17;;;;;;;9.00;2.30;;;;;;;;;;5030931;28;20018;-92
2023/11/03 03:18:42;;;;;;;12.98;1.45;;;;;;;;;;5030632;28;20294;-92
2023/11/03 03:21:07;;;;;;;12.73;1.77;;;;;;;;;;5030741;28;20060;-92
2023/11/03 03:23:33;;;;;;;20.40;1.77;;;;;;;;;;5030429;28;20021;-92
2023/11/03 03:25:58;;;;;;;21.48;2.03;;;;;;;;;;5030704;28;20598;-92
2023/11/03 03:28:23;;;;;;;11.98;1.70;;;;;;;;;;5030701;28;20021;-92
2023/11/03 03:30:49;;;;;;;12.45;2.33;;;;;;;;;;5030645;28;20472;-91
2023/11/03 03:33:14;;;;;;;9.47;1.50;;;;;;;;;;5031829;28;20100;-91
2023/11/03 03:35:39;;;;;;;19.10;1.70;;;;;;;;;;5030590;28;20259;-91
2023/11/03 03:38:05;;;;;;;12.27;1.73;;;;;;;;;;5030274;28;20297;-91
2023/11/03 03:40:30;;;;;;;16.60;2.10;;;;;;;;;;5031839;28;20021;-92
2023/11/03 03:42:55;;;;;;;14.27;1.83;;;;;;;;;;5030421;28;20470;-91
2023/11/03 03:45:21;;;;;;;12.52;1.85;;;;;;;;;;5030466;28;20840;-91
2023/11/03 03:47:46;;;;;;;26.52;4.22;;;;;;;;;;5030440;28;20029;-91
2023/11/03 03:50:11;;;;;;;7.60;1.05;;;;;;;;;;5030603;28;20464;-92
2023/11/03 03:52:36;;;;;;;13.98;1.73;;;;;;;;;;5030409;28;20116;-92
2023/11/03 03:55:02;;;;;;;12.57;2.47;;;;;;;;;;5030243;28;20434;-92
2023/11/03 03:57:27;;;;;;;11.05;1.35;;;;;;;;;;5030250;28;20804;-92
2023/11/03 03:59:52;;;;;;;10.50;1.70;;;;;;;;;;5030599;28;20025;-91
2023/11/03 04:02:17;;;;;;;8.73;1.30;;;;;;;;;;5030349;28;20479;-92
2023/11/03 04:04:44;;;;;;;19.27;2.13;;;;;;;;;;5031613;28;20426;-91
2023/11/03 04:07:09;;;;;;;18.73;1.63;;;;;;;;;;5033402;28;20864;-91
2023/11/03 04:09:36;;;;;;;10.00;1.33;;;;;;;;;;5035726;28;20100;-92
2023/11/03 04:12:02;;;;;;;18.75;2.20;;;;;;;;;;5035977;28;20059;-91
2023/11/03 04:14:27;;;;;;;10.50;1.55;;;;;;;;;;5035601;28;20044;-92
2023/11/03 04:16:52;;;;;;;9.93;1.55;;;;;;;;;;5034495;28;20033;-92
2023/11/03 04:19:18;;;;;;;13.85;1.40;;;;;;;;;;5035405;28;20026;-92
2023/11/03 04:21:43;;;;;;;13.55;3.35;;;;;;;;;;5035472;28;20025;-91
2023/11/03 04:24:08;;;;;;;22.40;2.15;;;;;;;;;;5035444;28;20476;-91
2023/11/03 04:26:34;;;;;;;11.30;1.60;;;;;;;;;;5035402;28;20066;-91
2023/11/03 04:28:59;;;;;;;12.00;1.10;;;;;;;;;;5034239;28;20024;-92
2023/11/03 04:31:24;;;;;;;13.93;2.20;;;;;;;;;;5034050;28;20200;-92
2023/11/03 04:33:51;;;;;;;9.27;1.30;;;;;;;;;;5033866;28;20112;-92
2023/11/03 04:36:16;;;;;;;7.13;1.00;;;;;;;;;;5033731;28;20305;-92
2023/11/03 04:38:41;;;;;;;15.70;2.40;;;;;;;;;;5034081;28;20033;-91
2023/11/03 04:41:06;;;;;;;12.57;3.58;;;;;;;;;;5033736;28;20422;-92
2023/11/03 04:43:36;;;;;;;11.83;1.40;;;;;;;;;;5033882;28;20075;-92
2023/11/03 04:46:03;;;;;;;7.20;1.65;;;;;;;;;;5035109;28;20250;-92
2023/11/03 04:48:28;;;;;;;14.60;1.65;;;;;;;;;;5035377;28;20035;-92
2023/11/03 04:50:53;;;;;;;17.70;2.10;;;;;;;;;;5033663;28;20465;-92
2023/11/03 04:53:20;;;;;;;10.07;1.50;;;;;;;;;;5033600;28;20482;-91
2023/11/03 04:55:45;;;;;;;12.45;1.83;;;;;;;;;;5033584;28;20116;-91
2023/11/03 04:58:10;;;;;;;9.90;1.20;;;;;;;;;;5034745;28;20048;-91
2023/11/03 05:00:36;;;;;;;8.23;1.45;;;;;;;;;;5034803;28;20029;-92
2023/11/03 05:03:01;;;;;;;11.05;1.65;;;;;;;;;;5033580;28;20041;-91
2023/11/03 05:05:32;;;;;;;7.10;1.20;;;;;;;;;;5034754;28;20478;-91
2023/11/03 05:07:57;;;;;;;6.85;1.15;;;;;;;;;;5034739;28;20017;-92
2023/11/03 05:10:22;;;;;;;11.15;1.33;;;;;;;;;;5034773;28;20368;-91
2023/11/03 05:12:47;;;;;;;14.20;1.47;;;;;;;;;;5034854;28;20018;-92
2023/11/03 05:15:12;;;;;;;10.57;1.60;;;;;;;;;;5034265;28;20368;-92
2023/11/03 05:17:38;;;;;;;6.47;1.37;;;;;;;;;;5033698;28;20061;-92
2023/11/03 05:20:07;;;;;;;12.30;1.80;;;;;;;;;;5034339;28;20289;-92
2023/11/03 05:22:32;;;;;;;11.25;1.80;;;;;;;;;;5032992;28;20026;-91
2023/11/03 05:24:57;;;;;;;12.13;2.10;;;;;;;;;;5034484;28;20102;-91
2023/11/03 05:27:23;;;;;;;14.48;1.65;;;;;;;;;;5034612;28;20017;-91
2023/11/03 05:29:48;;;;;;;12.38;1.35;;;;;;;;;;5034286;28;20021;-92
2023/11/03 05:32:13;;;;;;;9.50;1.38;;;;;;;;;;5034270;28;20518;-91
2023/11/03 05:34:40;;;;;;;8.85;1.65;;;;;;;;;;5033120;28;20040;-91
2023/11/03 05:37:05;;;;;;;7.00;1.20;;;;;;;;;;5034266;28;20475;-90
2023/11/03 05:39:32;;;;;;;10.55;1.55;;;;;;;;;;5033113;28;20033;-92
2023/11/03 05:41:57;;;;;;;11.63;1.40;;;;;;;;;;5034044;28;20022;-91
2023/11/03 05:44:24;;;;;;;10.48;1.55;;;;;;;;;;5032939;28;20031;-92
2023/11/03 05:46:49;;;;;;;7.47;1.13;;;;;;;;;;5032835;28;20024;-91
2023/11/03 05:49:14;;;;;;;12.98;1.95;;;;;;;;;;5032717;28;20021;-91
2023/11/03 05:51:40;;;;;;;7.00;1.25;;;;;;;;;;5034148;28;20021;-91
2023/11/03 05:54:05;;;;;;;14.10;1.25;;;;;;;;;;5033438;28;20422;-91
2023/11/03 05:56:31;;;;;;;12.23;1.10;;;;;;;;;;5033952;28;20030;-91
2023/11/03 05:58:56;;;;;;;13.45;1.05;;;;;;;;;;5032445;28;20010;-92
2023/11/03 06:01:21;;;;;;;17.35;1.55;;;;;;;;;;5033645;28;20113;-90
2023/11/03 06:03:46;;;;;;;15.98;1.55;;;;;;;;;;5033339;28;20459;-91
2023/11/03 06:06:12;;;;;;;14.68;1.77;;;;;;;;;;5033515;28;20464;-92
2023/11/03 06:08:37;;;;;;;5.85;1.25;;;;;;;;;;5032296;28;20023;-92
2023/11/03 06:11:03;;;;;;;5.72;1.00;;;;;;;;;;5032134;28;20489;-91
2023/11/03 06:13:28;;;;;;;8.40;1.08;;;;;;;;;;5033375;28;20527;-92
2023/11/03 06:15:53;;;;;;;16.03;1.83;;;;;;;;;;5031848;28;20018;-92
2023/11/03 06:18:19;;;;;;;10.23;1.20;;;;;;;;;;5033377;28;20266;-91
2023/11/03 06:20:44;;;;;;;6.90;0.90;;;;;;;;;;5031926;28;20242;-91
2023/11/03 06:23:10;;;;;;;9.20;1.70;;;;;;;;;;5033049;28;20017;-91
2023/11/03 06:25:35;;;;;;;7.05;1.67;;;;;;;;;;5031688;28;20262;-91
2023/11/03 06:28:00;;;;;;;15.13;1.10;;;;;;;;;;5031718;28;20144;-91
2023/11/03 06:30:26;;;;;;;14.48;1.35;;;;;;;;;;5031965;28;20025;-92
2023/11/03 06:32:51;;;;;;;7.82;1.00;;;;;;;;;;5031567;28;20190;-93
2023/11/03 06:35:16;;;;;;;7.05;1.00;;;;;;;;;;5032980;28;20457;-92
2023/11/03 06:37:42;;;;;;;11.93;2.03;;;;;;;;;;5031593;28;20032;-91
2023/11/03 06:40:11;;;;;;;8.95;1.38;;;;;;;;;;5031800;28;20255;-92
2023/11/03 06:42:40;;;;;;;13.55;1.10;;;;;;;;;;5031303;28;20444;-92
2023/11/03 06:45:07;;;;;;;11.50;0.95;;;;;;;;;;5032598;28;20027;-92
2023/11/03 06:47:32;;;;;;;8.07;1.45;;;;;;;;;;5031678;28;20084;-94
2023/11/03 06:49:59;;;;;;;5.78;0.93;;;;;;;;;;5031810;28;20028;-93
2023/11/03 06:52:24;;;;;;;9.88;2.13;;;;;;;;;;5031983;28;20083;-95
2023/11/03 06:54:50;;;;;;;5.85;1.13;;;;;;;;;;5031532;28;20025;-92
2023/11/03 06:57:15;;;;;;;14.02;1.67;;;;;;;;;;5030975;28;20500;-92
2023/11/03 06:59:42;;;;;;;13.30;1.30;;;;;;;;;;5030973;28;20045;-92
2023/11/03 07:02:08;;;;;;;11.27;1.23;;;;;;;;;;5032048;28;20072;-92
2023/11/03 07:04:34;;;;;;;12.93;1.23;;;;;;;;;;5032145;28;20025;-92
2023/11/03 07:07:00;;;;;;;8.23;1.33;;;;;;;;;;5032189;28;20041;-92
2023/11/03 07:09:25;;;;;;;12.88;1.50;;;;;;;;;;5032249;28;20063;-92
2023/11/03 07:11:50;;;;;;;5.43;0.70;;;;;;;;;;5030938;28;20036;-92
2023/11/03 07:14:16;;;;;;;9.20;1.10;;;;;;;;;;5030482;28;20358;-91
2023/11/03 07:16:42;;;;;;;8.57;2.55;;;;;;;;;;5032024;28;20388;-91
2023/11/03 07:19:08;;;;;;;7.13;1.20;;;;;;;;;;5032150;28;20105;-92
2023/11/03 07:21:33;;;;;;;12.38;1.67;;;;;;;;;;5032126;28;20025;-91
2023/11/03 07:23:58;;;;;;;9.32;1.70;;;;;;;;;;5032195;28;20013;-91
2023/11/03 07:26:24;;;;;;;7.30;1.17;;;;;;;;;;5032351;28;20018;-91
2023/11/03 07:28:49;;;;;;;7.63;1.55;;;;;;;;;;5030529;28;20029;-92
2023/11/03 07:31:16;;;;;;;11.70;1.50;;;;;;;;;;5031907;28;20014;-91
2023/11/03 07:33:41;;;;;;;10.63;1.30;;;;;;;;;;5031836;28;20471;-92
2023/11/03 07:36:07;;;;;;;5.72;1.10;;;;;;;;;;5030784;28;20029;-90
2023/11/03 07:38:33;;;;;;;11.18;1.27;;;;;;;;;;5030775;28;20030;-90
2023/11/03 07:40:58;;;;;;;4.53;0.57;;;;;;;;;;5033513;28;20117;-91
2023/11/03 07:43:23;;;;;;;7.13;1.13;;;;;;;;;;5037164;28;20679;-91
2023/11/03 07:45:50;;;;;;;10.23;0.80;;;;;;;;;;5038387;28;20017;-90
2023/11/03 07:48:15;;;;;;;15.57;1.90;;;;;;;;;;5037170;28;20029;-91
2023/11/03 07:50:41;;;;;;;6.35;1.15;;;;;;;;;;5038663;28;20017;-92
2023/11/03 07:53:07;;;;;;;13.68;1.23;;;;;;;;;;5038445;28;20379;-92
2023/11/03 07:55:33;;;;;;;6.32;1.05;;;;;;;;;;5038175;28;20051;-91
2023/11/03 07:57:59;;;;;;;8.30;1.58;;;;;;;;;;5038161;28;20026;-91
2023/11/03 08:00:24;;;;;;;5.55;1.00;;;;;;;;;;5038300;28;20063;-90
2023/11/03 08:02:50;;;;;;;8.40;1.03;;;;;;;;;;5038298;28;20390;-91
2023/11/03 08:05:15;;;;;;;14.77;1.63;;;;;;;;;;5038278;28;20625;-91
2023/11/03 08:07:41;;;;;;;10.57;1.70;;;;;;;;;;5038273;28;20045;-92
2023/11/03 08:10:11;;;;;;;10.88;1.38;;;;;;;;;;5038298;28;20375;-91
2023/11/03 08:12:38;;;;;;;7.75;1.27;;;;;;;;;;5038460;28;20013;-91
2023/11/03 08:15:03;;;;;;;7.50;1.25;;;;;;;;;;5038765;28;20017;-91
2023/11/03 08:17:29;;;;;;;6.30;1.10;;;;;;;;;;5036817;28;20037;-92
2023/11/03 08:19:55;;;;;;;5.32;1.05;;;;;;;;;;5037896;28;20079;-91
2023/11/03 08:22:20;;;;;;;7.72;1.25;;;;;;;;;;5038166;28;20471;-92
2023/11/03 08:24:45;;;;;;;11.45;1.60;;;;;;;;;;5038023;28;20025;-92
2023/11/03 08:27:12;;;;;;;5.13;0.77;;;;;;;;;;5038153;28;20067;-91
2023/11/03 08:29:37;;;;;;;9.93;1.20;;;;;;;;;;5038410;28;20483;-91
2023/11/03 08:32:02;;;;;;;7.85;0.90;;;;;;;;;;5038043;28;20017;-91
2023/11/03 08:34:29;;;;;;;12.45;3.33;;;;;;;;;;5037661;28;20467;-91
2023/11/03 08:36:54;;;;;;;8.82;0.95;;;;;;;;;;5037927;28;20061;-92
2023/11/03 08:39:20;;;;;;;11.20;1.08;;;;;;;;;;5037870;28;20049;-91
2023/11/03 08:41:45;;;;;;;15.35;1.67;;;;;;;;;;5036580;28;20021;-91
2023/11/03 08:44:11;;;;;;;13.18;2.00;;;;;;;;;;5038012;28;20017;-90
2023/11/03 08:46:36;;;;;;;11.45;1.23;;;;;;;;;;5036529;28;20014;-91
2023/11/03 08:49:01;;;;;;;14.60;1.30;;;;;;;;;;5037792;28;20028;-90
2023/11/03 08:51:27;;;;;;;6.50;1.30;;;;;;;;;;5037758;28;20269;-90
2023/11/03 08:53:52;;;;;;;11.93;1.10;;;;;;;;;;5032404;28;20251;-91
2023/11/03 08:56:18;;;;;;;8.82;2.65;;;;;;;;;;5035116;28;20025;-93
2023/11/03 08:58:43;;;;;;;6.93;1.10;;;;;;;;;;5033201;28;20021;-91
2023/11/03 09:01:10;;;;;;;8.88;1.17;;;;;;;;;;5034667;28;20068;-93
2023/11/03 09:03:35;;;;;;;7.97;1.05;;;;;;;;;;5033057;28;20053;-93
2023/11/03 09:06:01;;;;;;;6.43;1.02;;;;;;;;;;5033226;28;20045;-92
2023/11/03 09:08:26;;;;;;;11.98;1.10;;;;;;;;;;5032497;28;20018;-92
2023/11/03 09:10:51;;;;;;;15.20;1.25;;;;;;;;;;5033060;28;20033;-92
2023/11/03 09:13:17;;;;;;;11.73;1.47;;;;;;;;;;5033011;28;20028;-93
2023/11/03 09:15:44;;;;;;;10.55;1.60;;;;;;;;;;5015327;28;20251;-91
2023/11/03 09:18:09;;;;;;;6.10;1.20;;;;;;;;;;5013116;28;20034;-90
2023/11/03 09:20:35;;;;;;;6.05;1.13;;;;;;;;;;5013108;28;20033;-91
2023/11/03 09:23:00;;;;;;;7.15;0.95;;;;;;;;;;5013016;28;20076;-91
2023/11/03 09:25:25;;;;;;;9.48;2.28;;;;;;;;;;5014141;28;20069;-91
2023/11/03 09:27:51;;;;;;;8.68;1.27;;;;;;;;;;5014285;28;20022;-91
2023/11/03 09:30:16;;;;;;;5.15;0.98;;;;;;;;;;5014011;28;20048;-91
2023/11/03 09:32:42;;;;;;;7.20;1.00;;;;;;;;;;5013047;28;20044;-91
2023/11/03 09:35:09;;;;;;;8.07;1.10;;;;;;;;;;5012765;28;20026;-91
2023/11/03 09:37:34;;;;;;;4.93;0.98;;;;;;;;;;5013806;28;20045;-91
2023/11/03 09:40:00;;;;;;;4.05;0.80;;;;;;;;;;5012711;28;20014;-91
2023/11/03 09:42:25;;;;;;;6.13;0.77;;;;;;;;;;5013968;28;20073;-91
2023/11/03 09:44:50;;;;;;;5.93;1.00;;;;;;;;;;5013845;28;20014;-91
2023/11/03 09:47:16;;;;;;;10.95;0.95;;;;;;;;;;5012624;28;20464;-90
2023/11/03 09:49:43;;;;;;;13.68;1.40;;;;;;;;;;5013872;28;20022;-90
2023/11/03 09:52:12;;;;;;;8.35;0.85;;;;;;;;;;5012451;28;20030;-92
2023/11/03 09:54:38;;;;;;;11.38;1.38;;;;;;;;;;5012393;28;20109;-91
2023/11/03 09:57:08;;;;;;;10.95;1.50;;;;;;;;;;5013383;28;20479;-91
2023/11/03 09:59:36;;;;;;;10.55;1.58;;;;;;;;;;5013660;28;20530;-91
2023/11/03 10:02:04;;;;;;;10.82;1.45;;;;;;;;;;5012438;28;20022;-90
2023/11/03 10:04:30;;;;;;;7.63;1.30;;;;;;;;;;5013478;28;20018;-91
2023/11/03 10:06:57;;;;;;;7.18;1.10;;;;;;;;;;5012272;28;20025;-91
2023/11/03 10:09:23;;;;;;;7.95;1.00;;;;;;;;;;5012392;28;20022;-91
2023/11/03 10:11:48;;;;;;;10.73;1.83;;;;;;;;;;5013405;28;20383;-90
2023/11/03 10:14:13;;;;;;;14.65;2.33;;;;;;;;;;5013540;28;20014;-91
2023/11/03 10:16:38;;;;;;;12.00;1.33;;;;;;;;;;5012219;28;20623;-91
2023/11/03 10:19:04;;;;;;;8.23;1.30;;;;;;;;;;5013291;28;20613;-91
2023/11/03 10:21:29;;;;;;;6.78;1.25;;;;;;;;;;5013264;28;20684;-92
2023/11/03 10:23:56;;;;;;;8.45;1.05;;;;;;;;;;5013202;28;20527;-91
2023/11/03 10:26:22;;;;;;;5.45;1.48;;;;;;;;;;5013215;28;20534;-91
2023/11/03 10:28:48;;;;;;;5.63;0.90;;;;;;;;;;5013076;28;20010;-90
2023/11/03 10:31:14;;;;;;;5.47;1.05;;;;;;;;;;5012024;28;20165;-92
2023/11/03 10:33:40;;;;;;;4.68;0.95;;;;;;;;;;5011790;28;20026;-91
2023/11/03 10:36:08;;;;;;;6.88;1.70;;;;;;;;;;5012995;28;20018;-91
2023/11/03 10:38:33;;;;;;;5.70;1.35;;;;;;;;;;5012889;28;20034;-90
2023/11/03 10:41:01;;;;;;;8.52;1.02;;;;;;;;;;5012722;28;20412;-91
2023/11/03 10:43:29;;;;;;;6.32;1.00;;;;;;;;;;5012944;28;20026;-90
2023/11/03 10:46:05;;;;;;;14.15;1.25;;;;;;;;;;5012903;28;20018;-90
2023/11/03 10:48:34;;;;;;;6.22;1.10;;;;;;;;;;5011577;28;20022;-91
2023/11/03 10:51:09;;;;;;;7.80;1.52;;;;;;;;;;5012830;28;20256;-91
2023/11/03 10:53:54;;;;;;;13.85;1.83;;;;;;;;;;5012401;28;20041;-91
2023/11/03 10:56:20;;;;;;;9.52;1.13;;;;;;;;;;5012652;28;20037;-91
2023/11/03 10:58:46;;;;;;;5.22;1.13;;;;;;;;;;5012793;28;20026;-92
2023/11/03 11:01:17;;;;;;;11.60;1.35;;;;;;;;;;5012737;28;20353;-91
2023/11/03 11:03:57;;;;;;;6.07;0.95;;;;;;;;;;5011288;28;20029;-91
2023/11/03 11:06:28;;;;;;;14.45;1.52;;;;;;;;;;5012676;28;20049;-92
2023/11/03 11:08:57;;;;;;;2.42;0.90;;;;;;;;;;5011381;28;20018;-91
2023/11/03 11:11:26;;;;;;;8.98;1.20;;;;;;;;;;5012756;28;20030;-91
2023/11/03 11:13:52;;;;;;;6.93;1.15;;;;;;;;;;5011021;28;20105;-91
2023/11/03 11:16:17;;;;;;;6.37;1.47;;;;;;;;;;5010561;28;20109;-90
2023/11/03 11:18:56;;;;;;;7.18;1.90;;;;;;;;;;5011099;28;20736;-91
2023/11/03 11:21:34;;;;;;;5.55;1.48;;;;;;;;;;5011207;28;20498;-91
2023/11/03 11:23:59;;;;;;;7.78;1.02;;;;;;;;;;5012389;28;20021;-91
2023/11/03 11:26:25;;;;;;;3.30;0.65;;;;;;;;;;5012140;28;20025;-91
2023/11/03 11:28:51;;;;;;;6.30;1.45;;;;;;;;;;5012249;28;20080;-90
2023/11/03 11:31:26;;;;;;;6.38;1.10;;;;;;;;;;5010967;28;20047;-91
2023/11/03 11:33:58;;;;;;;7.65;1.08;;;;;;;;;;5012345;28;20233;-91
2023/11/03 11:36:23;;;;;;;4.97;0.60;;;;;;;;;;5010995;28;20420;-91
2023/11/03 11:38:50;;;;;;;3.10;0.63;;;;;;;;;;5012203;28;20014;-92
2023/11/03 11:41:15;;;;;;;5.03;0.88;;;;;;;;;;5012218;28;20105;-91
2023/11/03 11:43:41;;;;;;;6.22;1.25;;;;;;;;;;5012067;28;20591;-90
2023/11/03 11:46:06;;;;;;;6.68;0.73;;;;;;;;;;5010736;28;20483;-91
2023/11/03 11:48:31;;;;;;;8.57;0.97;;;;;;;;;;5012129;28;20018;-91
2023/11/03 11:50:56;;;;;;;4.75;1.27;;;;;;;;;;5012031;28;20334;-91
2023/11/03 11:53:24;;;;;;;5.93;0.75;;;;;;;;;;5010641;28;20105;-91
2023/11/03 11:55:50;;;;;;;5.50;1.42;;;;;;;;;;5010577;28;20026;-90
2023/11/03 11:58:16;;;;;;;7.00;0.90;;;;;;;;;;5011935;28;20030;-91
2023/11/03 12:00:41;;;;;;;2.00;0.52;;;;;;;;;;5011794;28;20464;-91
2023/11/03 12:03:07;;;;;;;13.07;1.40;;;;;;;;;;5011950;28;20018;-90
2023/11/03 12:05:33;;;;;;;9.55;1.13;;;;;;;;;;5012140;28;20022;-90
2023/11/03 12:08:01;;;;;;;6.75;1.25;;;;;;;;;;5010771;28;20555;-91
2023/11/03 12:10:31;;;;;;;6.22;0.98;;;;;;;;;;5011738;28;20006;-91
2023/11/03 12:12:57;;;;;;;10.68;2.35;;;;;;;;;;5010634;28;20476;-91
2023/11/03 12:15:23;;;;;;;3.63;0.52;;;;;;;;;;5011931;28;20067;-90
2023/11/03 12:17:48;;;;;;;4.60;0.83;;;;;;;;;;5011746;28;20034;-91
2023/11/03 12:20:14;;;;;;;6.00;0.60;;;;;;;;;;5010615;28;20259;-91
2023/11/03 12:22:39;;;;;;;5.70;0.98;;;;;;;;;;5011552;28;20088;-91
2023/11/03 12:25:06;;;;;;;4.43;1.50;;;;;;;;;;5010428;28;20018;-91
2023/11/03 12:27:31;;;;;;;5.60;0.65;;;;;;;;;;5012403;28;20075;-91
2023/11/03 12:30:03;;;;;;;1.60;0.50;;;;;;;;;;5015795;28;20014;-91
2023/11/03 12:32:30;;;;;;;3.20;1.13;;;;;;;;;;5014128;28;20263;-92
2023/11/03 12:34:56;;;;;;;4.32;0.88;;;;;;;;;;5015372;28;20017;-92
2023/11/03 12:37:22;;;;;;;3.72;0.30;;;;;;;;;;5014090;28;20041;-91
2023/11/03 12:39:50;;;;;;;3.47;0.60;;;;;;;;;;5015313;28;20022;-91
2023/11/03 12:42:17;;;;;;;5.15;0.68;;;;;;;;;;5015226;28;20061;-91
2023/11/03 12:44:53;;;;;;;3.22;0.40;;;;;;;;;;5014146;28;20464;-92
2023/11/03 12:47:38;;;;;;;3.67;0.30;;;;;;;;;;5014997;28;20088;-91
2023/11/03 12:50:07;;;;;;;4.13;0.57;;;;;;;;;;4996728;28;20499;-91
2023/11/03 12:52:33;;;;;;;1.75;0.30;;;;;;;;;;5013757;28;20037;-91
2023/11/03 12:54:59;;;;;;;5.70;0.50;;;;;;;;;;5013344;28;20376;-91
2023/11/03 12:57:34;;;;;;;4.18;0.60;;;;;;;;;;5014803;28;20117;-91
2023/11/03 13:00:00;;;;;;;6.28;0.73;;;;;;;;;;5014797;28;20014;-92
2023/11/03 13:02:26;;;;;;;2.83;0.68;;;;;;;;;;5014948;28;20018;-91
2023/11/03 13:04:52;;;;;;;3.25;0.45;;;;;;;;;;5014471;28;20022;-91
2023/11/03 13:07:17;;;;;;;4.00;0.30;;;;;;;;;;5013600;28;20459;-91
2023/11/03 13:09:42;;;;;;;1.60;0.20;;;;;;;;;;5014806;28;20102;-91
2023/11/03 13:12:09;;;;;;;2.97;0.60;;;;;;;;;;5013414;28;20084;-91
2023/11/03 13:14:35;;;;;;;1.77;0.40;;;;;;;;;;5014730;28;20014;-91
2023/11/03 13:17:01;;;;;;;3.03;0.70;;;;;;;;;;5013133;28;20043;-91
2023/11/03 13:19:26;;;;;;;1.63;0.57;;;;;;;;;;5013638;28;20794;-90
2023/11/03 13:21:53;;;;;;;2.78;0.60;;;;;;;;;;5013543;28;20101;-91
2023/11/03 13:24:18;;;;;;;3.83;1.27;;;;;;;;;;5014389;28;20072;-92
2023/11/03 13:26:43;;;;;;;4.18;1.08;;;;;;;;;;5015005;28;20022;-91
2023/11/03 13:29:09;;;;;;;2.63;0.73;;;;;;;;;;5014475;28;20018;-91
2023/11/03 13:31:35;;;;;;;2.28;0.68;;;;;;;;;;5014610;28;20286;-91
2023/11/03 13:34:00;;;;;;;6.82;0.70;;;;;;;;;;5014864;28;20408;-91
2023/11/03 13:36:25;;;;;;;7.03;1.20;;;;;;;;;;5013135;28;20523;-91
2023/11/03 13:38:54;;;;;;;3.30;0.77;;;;;;;;;;5013890;28;20807;-90
2023/11/03 13:41:19;;;;;;;4.38;0.88;;;;;;;;;;5014661;28;20722;-91
2023/11/03 13:43:45;;;;;;;4.72;1.05;;;;;;;;;;5014334;28;20113;-91
2023/11/03 13:46:14;;;;;;;4.83;1.47;;;;;;;;;;5014118;28;20021;-90
2023/11/03 13:48:39;;;;;;;7.53;1.48;;;;;;;;;;5014405;28;20661;-92
2023/11/03 13:51:05;;;;;;;5.78;1.20;;;;;;;;;;5014154;28;20014;-91
2023/11/03 13:53:30;;;;;;;3.33;0.80;;;;;;;;;;5014002;28;20026;-91
2023/11/03 13:55:56;;;;;;;4.90;1.30;;;;;;;;;;5013900;28;20105;-91
2023/11/03 13:58:21;;;;;;;5.68;1.30;;;;;;;;;;5013874;28;20034;-91
2023/11/03 14:00:46;;;;;;;4.53;1.20;;;;;;;;;;5014285;28;20431;-91
2023/11/03 14:03:12;;;;;;;10.45;1.42;;;;;;;;;;5013564;28;20909;-91
2023/11/03 14:05:38;;;;;;;2.58;0.73;;;;;;;;;;5013781;28;20380;-92
2023/11/03 14:08:05;;;;;;;5.10;0.90;;;;;;;;;;5013789;28;20028;-92
2023/11/03 14:10:31;;;;;;;4.45;1.00;;;;;;;;;;5013886;28;20020;-91
2023/11/03 14:12:56;;;;;;;4.30;0.73;;;;;;;;;;5013374;28;20018;-91
2023/11/03 14:15:23;;;;;;;9.02;1.30;;;;;;;;;;5013699;28;20022;-91
2023/11/03 14:17:48;;;;;;;3.13;0.60;;;;;;;;;;5012117;28;20064;-91
2023/11/03 14:20:15;;;;;;;0.75;0.30;;;;;;;;;;5013306;28;20057;-90
2023/11/03 14:22:41;;;;;;;2.70;0.80;;;;;;;;;;5013476;28;20025;-91
2023/11/03 14:25:06;;;;;;;3.28;0.43;;;;;;;;;;5013764;28;20014;-91
2023/11/03 14:27:34;;;;;;;1.90;0.68;;;;;;;;;;5013474;28;20045;-91
2023/11/03 14:30:00;;;;;;;2.38;1.50;;;;;;;;;;5013273;28;20010;-91